Time;durP1;ratioP1;P1;durP2;ratioP2;P2;SDS_P1;SDS_P2;PMS_P1;PMS_P2;Temp;Humidity;BMP_temperature;BMP_pressure;BME280_temperature;BME280_humidity;BME280_pressure;Samples;Min_cycle;Max_cycle;Signal;HPM_P1;HPM_P2
2023/05/15 00:00:21;;;;;;;;;36.40;27.40;;;;;;;;1966939;28;3610621;-71
2023/05/15 00:01:33;;;;;;;;;31.67;28.00;;;;;;;;1947379;28;3588813;-71
2023/05/15 00:02:44;;;;;;;;;33.80;30.40;;;;;;;;1955539;28;2858660;-71
2023/05/15 00:03:54;;;;;;;;;39.00;33.00;;;;;;;;1970920;28;2852301;-71
2023/05/15 00:05:07;;;;;;;;;34.80;32.20;;;;;;;;1964213;28;3580431;-71
2023/05/15 00:06:18;;;;;;;;;24.40;21.20;;;;;;;;1953316;28;3566878;-71
2023/05/15 00:07:30;;;;;;;;;33.40;30.60;;;;;;;;1982246;28;3602351;-71
2023/05/15 00:08:42;;;;;;;;;37.40;32.20;;;;;;;;1970382;28;3589797;-71
2023/05/15 00:09:54;;;;;;;;;34.00;30.80;;;;;;;;1972468;28;3599158;-71
2023/05/15 00:11:05;;;;;;;;;32.00;29.60;;;;;;;;1955143;28;2842974;-71
2023/05/15 00:12:16;;;;;;;;;36.20;34.00;;;;;;;;1975778;28;3586646;-71
2023/05/15 00:13:28;;;;;;;;;35.20;32.80;;;;;;;;1981125;28;3578382;-71
2023/05/15 00:14:40;;;;;;;;;43.80;33.80;;;;;;;;1957968;28;3611732;-71
2023/05/15 00:15:52;;;;;;;;;41.60;34.80;;;;;;;;1975501;28;3585614;-71
2023/05/15 00:17:04;;;;;;;;;33.40;28.20;;;;;;;;1973632;28;3599175;-71
2023/05/15 00:18:16;;;;;;;;;36.00;32.40;;;;;;;;1955571;28;3602284;-71
2023/05/15 00:19:28;;;;;;;;;38.80;33.40;;;;;;;;1972993;28;3564773;-71
2023/05/15 00:20:40;;;;;;;;;36.20;32.20;;;;;;;;1997258;28;3582516;-71
2023/05/15 00:21:52;;;;;;;;;37.40;32.00;;;;;;;;1967737;28;3600205;-71
2023/05/15 00:23:04;;;;;;;;;42.80;35.20;;;;;;;;1954922;28;3597584;-71
2023/05/15 00:24:16;;;;;;;;;40.20;35.00;;;;;;;;1972077;28;3578334;-71
2023/05/15 00:25:28;;;;;;;;;37.80;32.60;;;;;;;;1973543;28;3593965;-71
2023/05/15 00:26:40;;;;;;;;;40.80;30.20;;;;;;;;1972976;28;3627283;-71
2023/05/15 00:27:52;;;;;;;;;36.60;30.60;;;;;;;;1971648;28;3596043;-71
2023/05/15 00:29:04;;;;;;;;;45.40;34.20;;;;;;;;1973522;28;3618994;-71
2023/05/15 00:30:16;;;;;;;;;39.60;34.20;;;;;;;;1972557;28;3601238;-71
2023/05/15 00:31:28;;;;;;;;;46.00;37.00;;;;;;;;1973242;28;3597090;-71
2023/05/15 00:32:40;;;;;;;;;37.60;34.60;;;;;;;;1973930;28;3604435;-71
2023/05/15 00:33:51;;;;;;;;;40.00;34.00;;;;;;;;1971921;28;3590834;-71
2023/05/15 00:35:04;;;;;;;;;44.60;35.20;;;;;;;;1973876;28;3587033;-71
2023/05/15 00:36:16;;;;;;;;;47.00;38.00;;;;;;;;1963032;28;3583536;-71
2023/05/15 00:37:27;;;;;;;;;47.20;35.20;;;;;;;;1956007;28;3608517;-71
2023/05/15 00:38:39;;;;;;;;;39.40;35.00;;;;;;;;1974854;28;3596014;-71
2023/05/15 00:39:51;;;;;;;;;47.60;37.40;;;;;;;;1971218;28;3597082;-71
2023/05/15 00:41:05;;;;;;;;;44.60;35.20;;;;;;;;1973733;28;3602316;-71
2023/05/15 00:42:16;;;;;;;;;47.50;36.00;;;;;;;;1948352;28;2862717;-71
2023/05/15 00:43:27;;;;;;;;;48.00;37.60;;;;;;;;1954504;28;3594987;-71
2023/05/15 00:44:40;;;;;;;;;34.40;32.60;;;;;;;;1963363;28;3587696;-71
2023/05/15 00:45:51;;;;;;;;;45.50;36.00;;;;;;;;1947695;28;2848179;-71
2023/05/15 00:47:03;;;;;;;;;44.60;36.80;;;;;;;;1953358;28;3591879;-71
2023/05/15 00:48:15;;;;;;;;;44.50;35.00;;;;;;;;1946396;28;2850250;-71
2023/05/15 00:49:28;;;;;;;;;48.00;37.50;;;;;;;;1947498;28;2861664;-71
2023/05/15 00:50:40;;;;;;;;;52.00;42.00;;;;;;;;1948127;28;2864786;-71
2023/05/15 00:51:50;;;;;;;;;50.50;40.50;;;;;;;;1947935;28;2854389;-71
2023/05/15 00:53:02;;;;;;;;;50.20;38.40;;;;;;;;1964194;28;3587713;-71
2023/05/15 00:54:15;;;;;;;;;47.60;38.60;;;;;;;;1973447;28;3590859;-71
2023/05/15 00:55:27;;;;;;;;;50.00;39.00;;;;;;;;1957633;28;3598104;-71
2023/05/15 00:56:38;;;;;;;;;46.50;35.00;;;;;;;;1948925;28;2861668;-71
2023/05/15 00:57:51;;;;;;;;;45.80;37.40;;;;;;;;1972456;28;3591859;-71
2023/05/15 00:59:02;;;;;;;;;46.50;37.50;;;;;;;;1948625;28;2856476;-71
2023/05/15 01:00:15;;;;;;;;;49.50;41.00;;;;;;;;1948553;28;2855470;-71
2023/05/15 01:01:26;;;;;;;;;48.00;34.50;;;;;;;;1949390;28;2871074;-71
2023/05/15 01:02:38;;;;;;;;;53.40;39.20;;;;;;;;1971218;28;3627299;-71
2023/05/15 01:03:50;;;;;;;;;45.20;35.20;;;;;;;;1972876;28;3607509;-71
2023/05/15 01:05:02;;;;;;;;;50.00;37.80;;;;;;;;1972186;28;3603328;-71
2023/05/15 01:06:13;;;;;;;;;49.50;38.00;;;;;;;;1939780;28;2855435;-71
2023/05/15 01:07:25;;;;;;;;;46.20;36.00;;;;;;;;1969613;28;3591906;-71
2023/05/15 01:08:44;;;;;;;;;48.20;39.80;;;;;;;;1972192;28;3603352;-71
2023/05/15 01:09:56;;;;;;;;;41.00;35.00;;;;;;;;1948050;28;2845046;-71
2023/05/15 01:11:06;;;;;;;;;49.50;38.50;;;;;;;;1945364;28;2866880;-71
2023/05/15 01:12:19;;;;;;;;;50.40;39.40;;;;;;;;1952893;28;3605416;-71
2023/05/15 01:13:29;;;;;;;;;46.50;38.00;;;;;;;;1948309;28;2854377;-71
2023/05/15 01:14:41;;;;;;;;;46.00;36.80;;;;;;;;1971383;28;3598472;-71
2023/05/15 01:15:53;;;;;;;;;47.00;38.60;;;;;;;;1965507;28;3581450;-71
2023/05/15 01:17:05;;;;;;;;;45.80;35.40;;;;;;;;1966858;28;3598121;-71
2023/05/15 01:18:17;;;;;;;;;52.60;39.60;;;;;;;;1964588;28;3600569;-72
2023/05/15 01:19:29;;;;;;;;;42.40;37.80;;;;;;;;1973944;28;3578334;-71
2023/05/15 01:20:47;;;;;;;;;44.60;36.80;;;;;;;;1959571;28;3591864;-71
2023/05/15 01:22:06;;;;;;;;;47.50;39.00;;;;;;;;1945814;28;2860686;-71
2023/05/15 01:23:37;;;;;;;;;48.50;39.50;;;;;;;;1940316;28;2873162;-71
2023/05/15 01:24:50;;;;;;;;;44.50;35.50;;;;;;;;1947282;28;2850278;-71
2023/05/15 01:26:13;;;;;;;;;38.50;34.00;;;;;;;;1947018;28;2854467;-71
2023/05/15 01:27:34;;;;;;;;;48.00;35.50;;;;;;;;1946429;28;2853406;-71
2023/05/15 01:28:47;;;;;;;;;44.00;34.00;;;;;;;;1946886;28;2863808;-71
2023/05/15 01:30:01;;;;;;;;;46.00;36.50;;;;;;;;1948361;28;2850305;-71
2023/05/15 01:31:15;;;;;;;;;50.00;39.00;;;;;;;;1947010;28;2867978;-71
2023/05/15 01:32:33;;;;;;;;;49.00;37.00;;;;;;;;1947025;28;2872147;-71
2023/05/15 01:33:46;;;;;;;;;52.50;37.00;;;;;;;;1947585;28;2877375;-71
2023/05/15 01:35:01;;;;;;;;;46.50;39.00;;;;;;;;1947664;28;2866946;-71
2023/05/15 01:36:23;;;;;;;;;41.00;34.00;;;;;;;;1947809;28;2852346;-71
2023/05/15 01:37:35;;;;;;;;;53.50;37.00;;;;;;;;1945236;28;2873574;-71
2023/05/15 01:38:54;;;;;;;;;45.50;35.00;;;;;;;;1939645;28;2851779;-71
2023/05/15 01:40:06;;;;;;;;;48.00;35.50;;;;;;;;1945525;28;2852329;-71
2023/05/15 01:41:39;;;;;;;;;44.50;33.00;;;;;;;;1946218;28;2843996;-71
2023/05/15 01:42:55;;;;;;;;;50.00;38.50;;;;;;;;1938333;28;2853409;-71
2023/05/15 01:44:20;;;;;;;;;39.50;34.50;;;;;;;;1939178;28;2852333;-71
2023/05/15 01:45:31;;;;;;;;;42.50;35.50;;;;;;;;1945396;28;2851310;-71
2023/05/15 01:46:43;;;;;;;;;45.00;35.00;;;;;;;;1945539;28;2845046;-71
2023/05/15 01:47:55;;;;;;;;;44.00;35.33;;;;;;;;1948495;28;2846083;-71
2023/05/15 01:49:08;;;;;;;;;48.50;37.50;;;;;;;;1971487;28;2860628;-71
2023/05/15 01:50:19;;;;;;;;;48.50;37.50;;;;;;;;1948537;28;2861684;-71
2023/05/15 01:51:30;;;;;;;;;50.00;38.00;;;;;;;;1948166;28;2870061;-71
2023/05/15 01:52:42;;;;;;;;;46.00;35.50;;;;;;;;1949177;28;2860647;-71
2023/05/15 01:53:55;;;;;;;;;48.00;36.50;;;;;;;;1949088;28;2858563;-71
2023/05/15 01:55:07;;;;;;;;;42.00;35.00;;;;;;;;1948879;28;2840835;-71
2023/05/15 01:56:18;;;;;;;;;48.00;35.50;;;;;;;;1971427;28;2855445;-71
2023/05/15 01:57:30;;;;;;;;;52.00;40.50;;;;;;;;1947888;28;2858547;-71
2023/05/15 01:58:41;;;;;;;;;42.50;35.00;;;;;;;;1948405;28;2844998;-71
2023/05/15 01:59:52;;;;;;;;;44.50;34.50;;;;;;;;1948951;28;2846072;-71
2023/05/15 02:01:04;;;;;;;;;52.20;42.80;;;;;;;;1950243;28;3599178;-71
2023/05/15 02:02:16;;;;;;;;;44.50;35.00;;;;;;;;1947471;28;2859631;-71
2023/05/15 02:03:26;;;;;;;;;36.00;34.50;;;;;;;;1949450;28;2842930;-71
2023/05/15 02:04:39;;;;;;;;;54.40;42.20;;;;;;;;1962096;28;3602343;-71
2023/05/15 02:05:50;;;;;;;;;53.50;39.50;;;;;;;;1946066;28;2868281;-71
2023/05/15 02:07:02;;;;;;;;;53.50;40.50;;;;;;;;1940854;28;2875201;-71
2023/05/15 02:08:14;;;;;;;;;48.00;37.00;;;;;;;;1947792;28;2854463;-71
2023/05/15 02:09:24;;;;;;;;;53.00;40.50;;;;;;;;1955103;28;2854419;-71
2023/05/15 02:10:36;;;;;;;;;50.20;41.40;;;;;;;;1968877;28;3591890;-71
2023/05/15 02:11:49;;;;;;;;;53.60;42.20;;;;;;;;1958150;28;3614773;-71
2023/05/15 02:13:00;;;;;;;;;50.00;40.00;;;;;;;;1949046;28;2867958;-71
2023/05/15 02:14:13;;;;;;;;;53.00;41.60;;;;;;;;1959027;28;3619325;-71
2023/05/15 02:15:24;;;;;;;;;47.50;41.00;;;;;;;;1949009;28;2853363;-71
2023/05/15 02:16:36;;;;;;;;;50.60;42.20;;;;;;;;1950673;28;3589789;-71
2023/05/15 02:17:48;;;;;;;;;52.20;41.80;;;;;;;;1968669;28;3605427;-71
2023/05/15 02:19:00;;;;;;;;;54.00;41.20;;;;;;;;1970624;28;3613735;-71
2023/05/15 02:20:13;;;;;;;;;56.40;43.40;;;;;;;;1966436;28;3615823;-72
2023/05/15 02:21:23;;;;;;;;;52.00;38.00;;;;;;;;1947755;28;2854397;-71
2023/05/15 02:22:35;;;;;;;;;52.00;41.20;;;;;;;;1970762;28;3610632;-71
2023/05/15 02:23:47;;;;;;;;;48.40;38.80;;;;;;;;1974044;28;3588737;-71
2023/05/15 02:24:59;;;;;;;;;52.80;42.60;;;;;;;;1995416;28;3603390;-71
2023/05/15 02:26:16;;;;;;;;;52.40;41.40;;;;;;;;1968721;28;3597067;-71
2023/05/15 02:27:27;;;;;;;;;51.00;42.00;;;;;;;;1944849;28;2865839;-71
2023/05/15 02:29:01;;;;;;;;;53.67;38.00;;;;;;;;1947397;28;2877307;-71
2023/05/15 02:30:14;;;;;;;;;49.00;39.00;;;;;;;;1969009;28;2857564;-71
2023/05/15 02:31:34;;;;;;;;;52.00;39.50;;;;;;;;1945547;28;2870099;-71
2023/05/15 02:32:44;;;;;;;;;56.00;42.00;;;;;;;;1939368;28;2880852;-71
2023/05/15 02:34:02;;;;;;;;;53.00;38.20;;;;;;;;1970939;28;3614767;-71
2023/05/15 02:35:33;;;;;;;;;53.00;41.00;;;;;;;;1969726;28;2870045;-71
2023/05/15 02:36:45;;;;;;;;;56.00;43.00;;;;;;;;1946182;28;2882597;-72
2023/05/15 02:37:57;;;;;;;;;55.00;43.50;;;;;;;;1946255;28;2870047;-71
2023/05/15 02:39:09;;;;;;;;;57.00;43.50;;;;;;;;1946893;28;2878377;-71
2023/05/15 02:40:20;;;;;;;;;55.00;41.50;;;;;;;;1945826;28;2880524;-71
2023/05/15 02:41:32;;;;;;;;;48.50;37.50;;;;;;;;1947260;28;2848195;-71
2023/05/15 02:42:45;;;;;;;;;52.00;41.00;;;;;;;;1945716;28;2870049;-71
2023/05/15 02:43:55;;;;;;;;;55.00;42.50;;;;;;;;1947183;28;2876325;-71
2023/05/15 02:45:08;;;;;;;;;54.20;42.00;;;;;;;;1960957;28;3618930;-71
2023/05/15 02:46:20;;;;;;;;;57.67;42.33;;;;;;;;1971024;28;2886671;-71
2023/05/15 02:47:31;;;;;;;;;54.00;42.50;;;;;;;;1969879;28;2872084;-71
2023/05/15 02:48:42;;;;;;;;;53.50;41.00;;;;;;;;1947406;28;2863774;-71
2023/05/15 02:49:54;;;;;;;;;51.20;38.80;;;;;;;;1965123;28;3609639;-71
2023/05/15 02:51:06;;;;;;;;;58.00;43.00;;;;;;;;1970061;28;3628351;-71
2023/05/15 02:52:18;;;;;;;;;53.20;39.80;;;;;;;;1964375;28;3622059;-72
2023/05/15 02:53:31;;;;;;;;;53.40;41.60;;;;;;;;1972877;28;3617903;-71
2023/05/15 02:54:41;;;;;;;;;52.50;40.50;;;;;;;;1947589;28;2871091;-71
2023/05/15 02:55:53;;;;;;;;;50.20;39.60;;;;;;;;1960389;28;3593947;-71
2023/05/15 02:57:06;;;;;;;;;53.80;42.40;;;;;;;;1970178;28;3615851;-71
2023/05/15 02:58:18;;;;;;;;;53.00;41.00;;;;;;;;1944455;28;3616905;-71
2023/05/15 02:59:30;;;;;;;;;53.80;40.20;;;;;;;;1970279;28;3603330;-71
2023/05/15 03:00:42;;;;;;;;;53.60;41.60;;;;;;;;1969455;28;3619987;-71
2023/05/15 03:01:54;;;;;;;;;57.20;40.80;;;;;;;;1969519;28;3633555;-71
2023/05/15 03:03:06;;;;;;;;;56.20;43.80;;;;;;;;1971538;28;3613759;-71
2023/05/15 03:04:19;;;;;;;;;54.00;41.60;;;;;;;;1973160;28;3608060;-71
2023/05/15 03:05:30;;;;;;;;;54.00;42.50;;;;;;;;1948267;28;2875217;-71
2023/05/15 03:06:42;;;;;;;;;55.00;42.80;;;;;;;;1971820;28;3624232;-71
2023/05/15 03:07:53;;;;;;;;;51.00;40.40;;;;;;;;1963950;28;3588755;-71
2023/05/15 03:09:05;;;;;;;;;52.80;39.60;;;;;;;;1970146;28;3612718;-71
2023/05/15 03:10:19;;;;;;;;;52.00;42.00;;;;;;;;1978895;28;3611030;-71
2023/05/15 03:11:30;;;;;;;;;49.50;39.00;;;;;;;;1947757;28;2854759;-71
2023/05/15 03:12:42;;;;;;;;;54.60;40.60;;;;;;;;1972879;28;3635616;-71
2023/05/15 03:13:53;;;;;;;;;45.20;39.60;;;;;;;;1954667;28;2858551;-71
2023/05/15 03:15:04;;;;;;;;;55.00;44.50;;;;;;;;1970998;28;2498172;-71
2023/05/15 03:16:15;;;;;;;;;57.00;41.50;;;;;;;;1949042;28;2879447;-71
2023/05/15 03:17:27;;;;;;;;;53.40;42.80;;;;;;;;1972737;28;3605407;-71
2023/05/15 03:18:39;;;;;;;;;53.20;40.20;;;;;;;;1972781;28;3623100;-71
2023/05/15 03:19:51;;;;;;;;;51.40;38.80;;;;;;;;1970977;28;3610604;-71
2023/05/15 03:21:03;;;;;;;;;59.80;45.60;;;;;;;;1964664;28;3625219;-71
2023/05/15 03:22:15;;;;;;;;;55.40;42.60;;;;;;;;1969544;28;3624176;-71
2023/05/15 03:23:27;;;;;;;;;51.80;40.40;;;;;;;;1971509;28;3596038;-71
2023/05/15 03:24:39;;;;;;;;;60.80;44.80;;;;;;;;1971935;28;3632514;-71
2023/05/15 03:25:51;;;;;;;;;53.80;42.00;;;;;;;;1972689;28;3597070;-71
2023/05/15 03:27:03;;;;;;;;;54.00;39.60;;;;;;;;1969838;28;3623124;-71
2023/05/15 03:28:15;;;;;;;;;59.00;45.00;;;;;;;;1948009;28;3609582;-71
2023/05/15 03:29:27;;;;;;;;;50.60;38.80;;;;;;;;1973013;28;3599186;-71
2023/05/15 03:30:39;;;;;;;;;55.60;43.40;;;;;;;;1969034;28;3590930;-71
2023/05/15 03:31:50;;;;;;;;;53.00;44.00;;;;;;;;1961575;28;3605401;-71
2023/05/15 03:33:03;;;;;;;;;60.60;42.20;;;;;;;;1971575;28;3628389;-71
2023/05/15 03:34:14;;;;;;;;;58.20;46.40;;;;;;;;1973331;28;3613749;-71
2023/05/15 03:35:26;;;;;;;;;56.20;45.00;;;;;;;;1973149;28;3603407;-71
2023/05/15 03:36:38;;;;;;;;;55.20;43.40;;;;;;;;1973156;28;3594976;-71
2023/05/15 03:37:50;;;;;;;;;54.80;42.00;;;;;;;;1973254;28;3608529;-71
2023/05/15 03:39:03;;;;;;;;;54.60;44.20;;;;;;;;1975420;28;3610619;-71
2023/05/15 03:40:14;;;;;;;;;56.50;39.50;;;;;;;;1947582;28;2871070;-71
2023/05/15 03:41:26;;;;;;;;;59.40;46.00;;;;;;;;1969913;28;3623552;-71
2023/05/15 03:42:37;;;;;;;;;55.00;41.00;;;;;;;;1949485;28;2865851;-71
2023/05/15 03:43:49;;;;;;;;;49.60;38.00;;;;;;;;1974172;28;3586657;-71
2023/05/15 03:45:01;;;;;;;;;55.40;42.00;;;;;;;;1997226;28;3589778;-71
2023/05/15 03:46:13;;;;;;;;;51.40;37.60;;;;;;;;1970760;28;3605414;-71
2023/05/15 03:47:25;;;;;;;;;59.00;42.40;;;;;;;;1972954;28;3602310;-71
2023/05/15 03:48:36;;;;;;;;;61.40;47.60;;;;;;;;1952783;28;2865885;-71
2023/05/15 03:49:47;;;;;;;;;54.20;42.40;;;;;;;;1994036;28;3598212;-71
2023/05/15 03:50:59;;;;;;;;;56.60;45.00;;;;;;;;1994926;28;3593954;-71
2023/05/15 03:52:12;;;;;;;;;54.60;42.20;;;;;;;;1966723;28;3605428;-71
2023/05/15 03:53:23;;;;;;;;;57.20;46.60;;;;;;;;1956049;28;3608584;-71
2023/05/15 03:54:36;;;;;;;;;55.20;45.60;;;;;;;;1974090;28;3596137;-71
2023/05/15 03:55:47;;;;;;;;;59.20;44.40;;;;;;;;1947302;28;3610611;-71
2023/05/15 03:56:58;;;;;;;;;58.00;43.20;;;;;;;;1943585;28;2862757;-71
2023/05/15 03:58:10;;;;;;;;;54.60;42.60;;;;;;;;1973604;28;3592908;-71
2023/05/15 03:59:22;;;;;;;;;53.60;42.20;;;;;;;;1996748;28;3599508;-71
2023/05/15 04:00:34;;;;;;;;;55.00;44.20;;;;;;;;1972673;28;3609595;-71
2023/05/15 04:01:46;;;;;;;;;55.20;42.80;;;;;;;;1972303;28;3624225;-71
2023/05/15 04:02:58;;;;;;;;;56.60;43.40;;;;;;;;1977995;28;3615816;-71
2023/05/15 04:04:10;;;;;;;;;60.40;46.00;;;;;;;;1973633;28;3626236;-71
2023/05/15 04:05:22;;;;;;;;;46.60;35.80;;;;;;;;1974960;28;3625258;-71
2023/05/15 04:06:34;;;;;;;;;48.80;38.40;;;;;;;;1974306;28;3593991;-71
2023/05/15 04:07:46;;;;;;;;;52.60;39.80;;;;;;;;1970459;28;3601248;-71
2023/05/15 04:08:58;;;;;;;;;57.20;46.00;;;;;;;;1967839;28;3600188;-71
2023/05/15 04:10:10;;;;;;;;;56.80;43.20;;;;;;;;1971316;28;3614754;-71
2023/05/15 04:11:22;;;;;;;;;54.60;42.40;;;;;;;;1965816;28;3603381;-71
2023/05/15 04:12:34;;;;;;;;;60.00;45.60;;;;;;;;1947456;28;3616897;-71
2023/05/15 04:13:46;;;;;;;;;50.80;41.20;;;;;;;;1958016;28;3591868;-71
2023/05/15 04:14:58;;;;;;;;;57.40;44.40;;;;;;;;1965793;28;3606966;-71
2023/05/15 04:16:10;;;;;;;;;55.60;44.20;;;;;;;;1948133;28;3590821;-71
2023/05/15 04:17:21;;;;;;;;;61.20;47.60;;;;;;;;1969151;28;3626245;-71
2023/05/15 04:18:34;;;;;;;;;57.60;44.80;;;;;;;;1973489;28;3610694;-71
2023/05/15 04:19:46;;;;;;;;;55.00;42.20;;;;;;;;1953376;28;2883651;-71
2023/05/15 04:20:57;;;;;;;;;54.50;43.50;;;;;;;;1968682;28;2858587;-71
2023/05/15 04:22:09;;;;;;;;;60.00;44.00;;;;;;;;1966714;28;3633533;-71
2023/05/15 04:23:22;;;;;;;;;56.00;43.13;;;;;;;;1967595;28;3624157;-71
2023/05/15 04:24:34;;;;;;;;;55.67;43.00;;;;;;;;1943454;28;3601269;-71
2023/05/15 04:25:47;;;;;;;;;55.80;41.60;;;;;;;;1970828;28;3608938;-71
2023/05/15 04:26:57;;;;;;;;;55.00;41.50;;;;;;;;1949084;28;2866924;-71
2023/05/15 04:28:14;;;;;;;;;58.25;45.38;;;;;;;;1970490;28;3621033;-71
2023/05/15 04:29:24;;;;;;;;;59.00;47.50;;;;;;;;1970215;28;2858622;-71
2023/05/15 04:30:36;;;;;;;;;53.20;41.80;;;;;;;;1971087;28;3603338;-71
2023/05/15 04:31:48;;;;;;;;;54.40;42.00;;;;;;;;1997077;28;3604706;-71
2023/05/15 04:33:00;;;;;;;;;54.40;44.20;;;;;;;;1973610;28;3605412;-71
2023/05/15 04:34:12;;;;;;;;;56.60;41.60;;;;;;;;1974817;28;3600211;-71
2023/05/15 04:35:24;;;;;;;;;55.60;43.60;;;;;;;;1970703;28;3605448;-71
2023/05/15 04:36:36;;;;;;;;;55.60;44.20;;;;;;;;1955317;28;2868019;-71
2023/05/15 04:37:47;;;;;;;;;56.60;43.60;;;;;;;;1979730;28;3595012;-71
2023/05/15 04:38:59;;;;;;;;;52.20;41.00;;;;;;;;1995018;28;3599150;-71
2023/05/15 04:40:13;;;;;;;;;52.00;41.00;;;;;;;;1961744;28;3596136;-71
2023/05/15 04:41:24;;;;;;;;;49.50;37.00;;;;;;;;1943820;28;2858663;-71
2023/05/15 04:42:36;;;;;;;;;59.20;43.00;;;;;;;;1962297;28;3615832;-71
2023/05/15 04:43:47;;;;;;;;;59.00;44.80;;;;;;;;1983348;28;3612770;-71
2023/05/15 04:45:00;;;;;;;;;56.00;42.60;;;;;;;;1972272;28;3609941;-71
2023/05/15 04:46:12;;;;;;;;;54.20;42.00;;;;;;;;1959226;28;3605404;-71
2023/05/15 04:47:23;;;;;;;;;57.20;44.60;;;;;;;;1971819;28;3623103;-71
2023/05/15 04:48:35;;;;;;;;;54.40;41.40;;;;;;;;1974653;28;3600207;-71
2023/05/15 04:49:48;;;;;;;;;54.00;42.00;;;;;;;;1972474;28;3605588;-71
2023/05/15 04:50:59;;;;;;;;;61.00;48.50;;;;;;;;1946099;28;2863766;-71
2023/05/15 04:52:11;;;;;;;;;51.00;39.20;;;;;;;;1970553;28;3608568;-71
2023/05/15 04:53:23;;;;;;;;;54.60;40.40;;;;;;;;1973960;28;3618945;-71
2023/05/15 04:54:35;;;;;;;;;56.80;44.60;;;;;;;;1972750;28;3606470;-71
2023/05/15 04:55:50;;;;;;;;;53.80;44.40;;;;;;;;1971516;28;3589832;-71
2023/05/15 04:57:01;;;;;;;;;57.00;47.00;;;;;;;;1945654;28;2862721;-71
2023/05/15 04:58:11;;;;;;;;;60.50;46.50;;;;;;;;1946491;28;2866884;-71
2023/05/15 04:59:23;;;;;;;;;55.40;39.00;;;;;;;;1976570;28;3611642;-71
2023/05/15 05:00:35;;;;;;;;;57.60;44.20;;;;;;;;1968526;28;3630403;-71
2023/05/15 05:01:47;;;;;;;;;61.40;44.80;;;;;;;;1967552;28;3625203;-71
2023/05/15 05:02:59;;;;;;;;;56.60;43.80;;;;;;;;1973553;28;3616846;-71
2023/05/15 05:04:11;;;;;;;;;57.00;45.00;;;;;;;;1973882;28;3612684;-71
2023/05/15 05:05:24;;;;;;;;;55.80;44.00;;;;;;;;1973443;28;3603314;-71
2023/05/15 05:06:35;;;;;;;;;63.20;48.80;;;;;;;;1963896;28;3628335;-71
2023/05/15 05:07:50;;;;;;;;;54.80;45.20;;;;;;;;1968916;28;3611679;-71
2023/05/15 05:09:00;;;;;;;;;59.50;48.50;;;;;;;;1948471;28;2867922;-71
2023/05/15 05:10:12;;;;;;;;;58.40;40.80;;;;;;;;1973736;28;3620062;-71
2023/05/15 05:11:24;;;;;;;;;53.40;41.80;;;;;;;;1973745;28;3603139;-71
2023/05/15 05:12:35;;;;;;;;;46.20;35.60;;;;;;;;1954002;28;2877356;-71
2023/05/15 05:13:47;;;;;;;;;55.40;44.40;;;;;;;;1992902;28;3604378;-71
2023/05/15 05:14:59;;;;;;;;;55.80;41.60;;;;;;;;1984967;28;3610617;-71
2023/05/15 05:16:11;;;;;;;;;54.60;41.00;;;;;;;;1972163;28;3606439;-71
2023/05/15 05:17:23;;;;;;;;;56.40;42.20;;;;;;;;1965392;28;3611648;-71
2023/05/15 05:18:36;;;;;;;;;53.80;43.40;;;;;;;;1970045;28;3612703;-71
2023/05/15 05:19:46;;;;;;;;;53.00;41.00;;;;;;;;1948078;28;2853355;-71
2023/05/15 05:20:59;;;;;;;;;48.60;38.00;;;;;;;;1973032;28;3601258;-71
2023/05/15 05:22:09;;;;;;;;;61.50;47.50;;;;;;;;1946761;28;2862706;-71
2023/05/15 05:23:21;;;;;;;;;51.00;39.00;;;;;;;;1972989;28;3605391;-71
2023/05/15 05:24:36;;;;;;;;;54.20;43.20;;;;;;;;1968889;28;3596046;-71
2023/05/15 05:25:48;;;;;;;;;55.67;44.67;;;;;;;;1948488;28;3603369;-72
2023/05/15 05:27:00;;;;;;;;;52.80;40.20;;;;;;;;1972306;28;3584603;-72
2023/05/15 05:28:12;;;;;;;;;52.80;39.00;;;;;;;;1988979;28;3587047;-71
2023/05/15 05:29:24;;;;;;;;;53.80;41.40;;;;;;;;1963998;28;3596077;-72
2023/05/15 05:30:36;;;;;;;;;59.80;44.80;;;;;;;;1970131;28;3608554;-72
2023/05/15 05:31:48;;;;;;;;;54.40;41.00;;;;;;;;1969021;28;3611694;-71
2023/05/15 05:33:00;;;;;;;;;55.20;43.40;;;;;;;;1972369;28;3606478;-72
2023/05/15 05:34:12;;;;;;;;;55.00;42.20;;;;;;;;1967272;28;3602899;-72
2023/05/15 05:35:24;;;;;;;;;61.20;41.40;;;;;;;;1967793;28;3636707;-72
2023/05/15 05:36:36;;;;;;;;;45.20;37.20;;;;;;;;1948162;28;3596081;-72
2023/05/15 05:37:46;;;;;;;;;56.00;42.40;;;;;;;;1952851;28;2864852;-72
2023/05/15 05:38:58;;;;;;;;;50.40;38.20;;;;;;;;1971226;28;3597433;-71
2023/05/15 05:40:10;;;;;;;;;54.60;41.00;;;;;;;;1996409;28;3605413;-71
2023/05/15 05:41:22;;;;;;;;;44.00;35.33;;;;;;;;1960981;28;3582508;-71
2023/05/15 05:42:34;;;;;;;;;57.40;42.00;;;;;;;;1996135;28;3631444;-71
2023/05/15 05:43:46;;;;;;;;;48.60;40.60;;;;;;;;1969110;28;3586663;-71
2023/05/15 05:44:58;;;;;;;;;53.40;36.60;;;;;;;;1990443;28;3625209;-71
2023/05/15 05:46:10;;;;;;;;;48.20;39.00;;;;;;;;1972623;28;3589831;-71
2023/05/15 05:47:22;;;;;;;;;56.20;40.60;;;;;;;;1968104;28;3629480;-71
2023/05/15 05:48:34;;;;;;;;;53.20;39.80;;;;;;;;1970141;28;3604359;-71
2023/05/15 05:49:46;;;;;;;;;50.80;39.60;;;;;;;;1959537;28;3584613;-72
2023/05/15 05:50:57;;;;;;;;;56.50;39.50;;;;;;;;1943867;28;2860105;-71
2023/05/15 05:52:09;;;;;;;;;51.20;38.40;;;;;;;;1965267;28;3595055;-71
2023/05/15 05:53:21;;;;;;;;;54.40;42.40;;;;;;;;1970326;28;3611681;-72
2023/05/15 05:54:33;;;;;;;;;55.60;43.60;;;;;;;;1971470;28;3621087;-71
2023/05/15 05:55:46;;;;;;;;;54.00;40.80;;;;;;;;1971909;28;3600255;-71
2023/05/15 05:56:56;;;;;;;;;54.50;40.00;;;;;;;;1946596;28;2864845;-72
2023/05/15 05:58:08;;;;;;;;;52.00;40.40;;;;;;;;1971262;28;3587733;-72
2023/05/15 05:59:20;;;;;;;;;53.80;42.80;;;;;;;;1988729;28;3610608;-71
2023/05/15 06:00:32;;;;;;;;;55.20;40.00;;;;;;;;1965650;28;3622072;-72
2023/05/15 06:01:44;;;;;;;;;60.20;44.40;;;;;;;;1971489;28;3621154;-71
2023/05/15 06:02:57;;;;;;;;;54.80;40.80;;;;;;;;1971950;28;3617931;-71
2023/05/15 06:04:08;;;;;;;;;48.50;39.00;;;;;;;;1945135;28;2850278;-71
2023/05/15 06:05:18;;;;;;;;;50.00;39.60;;;;;;;;1953388;28;2868991;-71
2023/05/15 06:06:30;;;;;;;;;49.00;38.00;;;;;;;;1995186;28;3617912;-70
2023/05/15 06:07:43;;;;;;;;;47.80;35.60;;;;;;;;1993321;28;3600574;-70
2023/05/15 06:08:55;;;;;;;;;55.40;41.40;;;;;;;;1963238;28;3615836;-70
2023/05/15 06:10:08;;;;;;;;;50.00;38.20;;;;;;;;1956254;28;3602287;-70
2023/05/15 06:11:20;;;;;;;;;47.00;35.00;;;;;;;;1941667;28;3606523;-70
2023/05/15 06:12:30;;;;;;;;;43.50;33.00;;;;;;;;1945809;28;2857579;-70
2023/05/15 06:13:42;;;;;;;;;54.80;42.80;;;;;;;;1962686;28;3614763;-70
2023/05/15 06:14:54;;;;;;;;;51.40;39.40;;;;;;;;1990757;28;3612688;-70
2023/05/15 06:16:06;;;;;;;;;49.60;35.60;;;;;;;;1968270;28;3619994;-70
2023/05/15 06:17:18;;;;;;;;;52.00;38.80;;;;;;;;1970086;28;3594980;-70
2023/05/15 06:18:30;;;;;;;;;56.80;41.40;;;;;;;;1971277;28;3624180;-70
2023/05/15 06:19:42;;;;;;;;;44.60;34.40;;;;;;;;1973202;28;3592963;-70
2023/05/15 06:20:54;;;;;;;;;48.00;37.00;;;;;;;;1971796;28;3597059;-70
2023/05/15 06:22:06;;;;;;;;;50.20;38.00;;;;;;;;1972263;28;3596030;-70
2023/05/15 06:23:18;;;;;;;;;42.00;33.80;;;;;;;;1970914;28;3593960;-70
2023/05/15 06:24:30;;;;;;;;;51.00;37.00;;;;;;;;1972153;28;3612716;-70
2023/05/15 06:25:41;;;;;;;;;43.60;32.80;;;;;;;;1952766;28;2867064;-70
2023/05/15 06:26:53;;;;;;;;;44.00;35.20;;;;;;;;1983897;28;3596021;-70
2023/05/15 06:28:05;;;;;;;;;55.20;36.80;;;;;;;;1995768;28;3625196;-70
2023/05/15 06:29:17;;;;;;;;;53.40;40.20;;;;;;;;1972044;28;3593952;-70
2023/05/15 06:30:29;;;;;;;;;48.60;39.60;;;;;;;;1972035;28;3593988;-70
2023/05/15 06:31:41;;;;;;;;;49.60;38.80;;;;;;;;1971452;28;3592964;-70
2023/05/15 06:32:53;;;;;;;;;46.00;36.00;;;;;;;;1972478;28;3601233;-70
2023/05/15 06:34:05;;;;;;;;;44.60;36.80;;;;;;;;1963029;28;3599158;-70
2023/05/15 06:35:17;;;;;;;;;50.00;39.20;;;;;;;;1970523;28;3583534;-70
2023/05/15 06:36:29;;;;;;;;;48.40;36.40;;;;;;;;1969483;28;3611796;-70
2023/05/15 06:37:41;;;;;;;;;50.80;38.60;;;;;;;;1969856;28;3586654;-70
2023/05/15 06:38:53;;;;;;;;;44.40;36.80;;;;;;;;1970017;28;3577911;-70
2023/05/15 06:40:05;;;;;;;;;53.00;41.60;;;;;;;;1993875;28;3599179;-70
2023/05/15 06:41:17;;;;;;;;;50.40;37.40;;;;;;;;1964257;28;3598135;-70
2023/05/15 06:42:29;;;;;;;;;47.60;37.00;;;;;;;;1970882;28;3586679;-70
2023/05/15 06:43:40;;;;;;;;;52.50;37.00;;;;;;;;1946552;28;2859605;-70
2023/05/15 06:44:52;;;;;;;;;46.80;36.80;;;;;;;;1973603;28;3592885;-70
2023/05/15 06:46:04;;;;;;;;;49.60;37.40;;;;;;;;1971586;28;3603429;-70
2023/05/15 06:47:16;;;;;;;;;39.40;31.40;;;;;;;;1969608;28;3613808;-70
2023/05/15 06:48:28;;;;;;;;;44.20;35.20;;;;;;;;1969094;28;3595047;-70